Time;durP1;ratioP1;P1;durP2;ratioP2;P2;SDS_P1;SDS_P2;PMS_P1;PMS_P2;Temp;Humidity;BMP_temperature;BMP_pressure;BME280_temperature;BME280_humidity;BME280_pressure;Samples;Min_cycle;Max_cycle;Signal;HPM_P1;HPM_P2
2022/01/17 00:00:54;;;;;;;29.05;20.58;;;;;;;3.52;88.23;101595.91;5022378;28;20056;-24
2022/01/17 00:03:24;;;;;;;29.85;20.10;;;;;;;3.54;88.48;101591.63;5024764;28;20028;-24
2022/01/17 00:05:53;;;;;;;30.73;19.50;;;;;;;3.54;88.47;101581.19;5021686;28;20021;-24
2022/01/17 00:08:19;;;;;;;31.35;20.23;;;;;;;3.53;88.32;101582.03;5019526;28;20029;-24
2022/01/17 00:10:46;;;;;;;32.45;19.98;;;;;;;3.56;88.07;101567.38;5022451;28;20029;-24
2022/01/17 00:13:21;;;;;;;28.92;20.02;;;;;;;3.56;88.32;101569.06;5019516;28;20060;-24
2022/01/17 00:15:51;;;;;;;32.47;20.60;;;;;;;3.59;88.28;101563.97;5016531;28;20021;-24
2022/01/17 00:20:47;;;;;;;30.27;20.65;;;;;;;3.62;88.04;101573.63;5023360;28;20032;-24
2022/01/17 00:23:14;;;;;;;36.13;22.38;;;;;;;3.61;88.74;101572.75;5023291;28;20041;-24
2022/01/17 00:25:40;;;;;;;33.17;20.77;;;;;;;3.63;88.67;101564.97;5020657;28;20045;-24
2022/01/17 00:28:05;;;;;;;33.28;20.35;;;;;;;3.64;88.41;101588.53;5025285;28;20397;-24
2022/01/17 00:30:31;;;;;;;29.75;20.15;;;;;;;3.64;88.60;101593.75;5025229;28;20033;-24
2022/01/17 00:32:57;;;;;;;32.67;20.75;;;;;;;3.64;88.33;101591.13;5022488;28;20029;-24
2022/01/17 00:35:24;;;;;;;30.13;20.35;;;;;;;3.66;88.54;101589.44;5022689;28;20041;-24
2022/01/17 00:37:49;;;;;;;29.15;19.50;;;;;;;3.68;88.39;101594.72;5025796;28;20032;-24
2022/01/17 00:40:15;;;;;;;31.83;21.00;;;;;;;3.68;88.39;101592.09;5024079;28;20764;-24
2022/01/17 00:42:42;;;;;;;32.33;22.10;;;;;;;3.69;88.50;101601.69;5025510;28;20072;-24
2022/01/17 00:45:11;;;;;;;35.92;22.23;;;;;;;3.70;88.72;101608.72;5021952;28;20033;-24
2022/01/17 00:47:37;;;;;;;32.03;20.70;;;;;;;3.71;88.31;101598.31;5022672;28;20791;-24
2022/01/17 00:50:03;;;;;;;35.53;21.75;;;;;;;3.72;88.55;101602.72;5020496;28;20117;-24
2022/01/17 00:52:29;;;;;;;32.25;20.80;;;;;;;3.72;88.38;101602.72;5022341;28;20056;-24
2022/01/17 00:54:54;;;;;;;38.03;21.48;;;;;;;3.72;88.31;101600.09;5025426;28;20525;-24
2022/01/17 00:57:20;;;;;;;33.33;19.45;;;;;;;3.74;88.89;101594.03;5019198;28;20026;-24
2022/01/17 00:59:45;;;;;;;33.10;21.05;;;;;;;3.73;88.62;101608.78;5012077;28;20547;-24
2022/01/17 01:02:11;;;;;;;35.55;21.17;;;;;;;3.74;88.30;101588.81;5015552;28;20026;-24
2022/01/17 01:04:36;;;;;;;32.58;20.60;;;;;;;3.76;88.57;101592.38;5015078;28;20053;-24
2022/01/17 01:07:02;;;;;;;32.35;20.65;;;;;;;3.77;88.46;101578.50;5020451;28;20092;-24
2022/01/17 01:09:33;;;;;;;32.13;21.27;;;;;;;3.76;88.58;101579.34;5016181;28;20559;-24
2022/01/17 01:11:59;;;;;;;;;;;;;;;3.79;87.99;101587.25;5025192;28;20033;-24
2022/01/17 01:14:24;;;;;;;31.75;20.58;;;;;;;3.78;88.31;101606.34;5022158;28;19920;-24
2022/01/17 01:16:53;;;;;;;30.25;20.02;;;;;;;3.78;88.50;101601.13;5015215;28;20579;-24
2022/01/17 01:19:26;;;;;;;32.15;20.48;;;;;;;3.79;88.52;101595.06;5025125;28;20100;-24
2022/01/17 01:29:56;;;;;;;31.33;20.65;;;;;;;3.78;88.82;101591.59;5026034;28;20627;-24
2022/01/17 01:32:26;;;;;;;33.58;21.17;;;;;;;3.80;88.58;101578.59;5024376;28;20444;-24
2022/01/17 01:34:55;;;;;;;36.83;22.17;;;;;;;3.81;88.78;101576.00;5024178;28;20064;-24
2022/01/17 01:37:21;;;;;;;38.50;23.33;;;;;;;3.81;88.45;101557.75;5025868;28;20477;-24
2022/01/17 01:39:49;;;;;;;30.88;19.42;;;;;;;3.83;88.73;101552.56;5022842;28;20079;-24
2022/01/17 01:42:18;;;;;;;33.22;20.52;;;;;;;3.84;88.62;101557.84;5028575;28;20592;-24
2022/01/17 01:44:44;;;;;;;36.00;20.33;;;;;;;3.84;88.63;101542.19;5027278;28;20493;-24
2022/01/17 01:47:10;;;;;;;31.73;20.02;;;;;;;3.82;88.60;101540.38;5023099;28;20040;-24
2022/01/17 01:49:36;;;;;;;29.17;20.00;;;;;;;3.85;88.59;101537.88;5029066;28;20256;-24
2022/01/17 01:52:02;;;;;;;32.72;20.25;;;;;;;3.86;88.62;101537.03;5027298;28;20067;-24
2022/01/17 01:54:28;;;;;;;33.33;20.83;;;;;;;3.86;88.17;101544.84;5026700;28;20033;-24
2022/01/17 01:56:53;;;;;;;34.00;20.00;;;;;;;3.85;88.36;101551.81;5025919;28;20029;-24
2022/01/17 01:59:21;;;;;;;34.15;20.55;;;;;;;3.87;88.58;101564.88;5023721;28;20022;-24
2022/01/17 02:01:48;;;;;;;32.03;20.45;;;;;;;3.87;88.66;101549.22;5024957;28;20056;-24
2022/01/17 02:04:15;;;;;;;29.10;19.42;;;;;;;3.86;88.67;101523.97;5023567;28;20030;-24
2022/01/17 02:06:41;;;;;;;32.28;20.50;;;;;;;3.88;88.55;101531.84;5021795;28;20049;-24
2022/01/17 02:09:07;;;;;;;31.00;19.48;;;;;;;3.87;88.51;101528.34;5024065;28;20033;-24
2022/01/17 02:11:33;;;;;;;29.15;18.17;;;;;;;3.87;88.83;101512.69;5023888;28;20477;-24
2022/01/17 02:13:59;;;;;;;29.70;18.42;;;;;;;3.89;88.74;101531.91;5020131;28;20124;-24
2022/01/17 02:16:25;;;;;;;27.08;19.42;;;;;;;3.89;88.92;101511.03;5026103;28;20120;-24
2022/01/17 02:18:51;;;;;;;26.20;17.25;;;;;;;3.91;88.64;101508.47;5020800;28;20021;-24
2022/01/17 02:22:00;;;;;;;25.48;16.35;;;;;;;3.90;88.35;101497.13;5020247;28;20421;-24
2022/01/17 02:24:06;;;;;;;26.92;17.77;;;;;;;3.92;88.37;101498.09;5021138;28;20076;-24
2022/01/17 02:26:32;;;;;;;24.27;16.27;;;;;;;3.90;88.23;101504.97;5022752;28;20042;-24
2022/01/17 02:28:58;;;;;;;22.90;14.82;;;;;;;3.92;88.46;101505.00;5024937;28;20481;-24
2022/01/17 02:31:25;;;;;;;22.98;13.65;;;;;;;3.92;88.58;101502.41;5025836;28;20025;-24
2022/01/17 02:33:51;;;;;;;23.77;14.73;;;;;;;3.93;88.06;101492.00;5023624;28;20065;-24
2022/01/17 02:36:17;;;;;;;19.15;13.57;;;;;;;3.93;88.29;101507.69;5018760;28;20462;-24
2022/01/17 02:38:43;;;;;;;20.08;13.77;;;;;;;3.94;88.31;101503.34;5016520;28;20041;-24
2022/01/17 02:41:09;;;;;;;18.25;12.10;;;;;;;3.96;88.03;101513.00;5021767;28;20018;-24
2022/01/17 02:43:35;;;;;;;19.88;13.02;;;;;;;3.96;88.00;101513.00;5019361;28;20065;-24
2022/01/17 02:48:39;;;;;;;20.33;12.02;;;;;;;3.97;88.57;101499.09;5028489;28;20117;-24
2022/01/17 02:51:04;;;;;;;19.13;13.15;;;;;;;3.99;87.94;101506.97;5026453;28;20041;-24
2022/01/17 02:53:30;;;;;;;21.02;12.07;;;;;;;3.98;88.10;101506.09;5024015;28;20029;-24
2022/01/17 02:55:58;;;;;;;24.00;13.68;;;;;;;4.00;87.92;101503.53;5023175;28;21441;-24
2022/01/17 02:58:27;;;;;;;18.92;12.68;;;;;;;4.01;88.09;101507.03;5023852;28;20034;-24
2022/01/17 03:00:54;;;;;;;22.25;13.07;;;;;;;4.01;88.53;101514.88;5022952;28;20032;-25
2022/01/17 03:03:22;;;;;;;17.23;11.98;;;;;;;4.03;88.41;101521.03;5026813;28;20033;-24
2022/01/17 03:05:48;;;;;;;21.08;12.98;;;;;;;4.03;88.21;101507.97;5007193;28;20035;-24
2022/01/17 03:08:16;;;;;;;21.52;13.65;;;;;;;4.03;88.21;101502.75;5023553;28;20034;-24
2022/01/17 03:10:43;;;;;;;16.88;12.20;;;;;;;4.02;88.03;101495.75;5023552;28;20096;-24
2022/01/17 03:13:16;;;;;;;19.23;13.07;;;;;;;4.05;87.70;101506.28;5027932;28;20348;-24
2022/01/17 03:15:43;;;;;;;18.08;11.40;;;;;;;4.04;87.79;101502.78;5025042;28;20025;-24
2022/01/17 03:18:09;;;;;;;21.35;12.75;;;;;;;4.04;87.81;101494.09;5021938;28;20446;-24
2022/01/17 03:20:37;;;;;;;17.58;11.00;;;;;;;4.05;88.17;101488.00;5024738;28;20159;-24
2022/01/17 03:23:03;;;;;;;17.38;11.75;;;;;;;4.06;87.74;101471.50;5027308;28;20030;-24
2022/01/17 03:25:29;;;;;;;16.88;10.80;;;;;;;4.05;87.81;101473.25;5022064;28;20451;-24
2022/01/17 03:27:54;;;;;;;15.35;10.38;;;;;;;4.05;87.68;101470.63;5025576;28;20029;-24
2022/01/17 03:30:22;;;;;;;13.23;9.63;;;;;;;4.04;87.51;101474.06;5020441;28;20116;-24
2022/01/17 03:32:47;;;;;;;13.25;9.57;;;;;;;4.04;87.33;101479.28;5023571;28;20025;-24
2022/01/17 03:35:14;;;;;;;13.52;9.48;;;;;;;4.06;87.13;101492.38;5023782;28;20542;-24
2022/01/17 03:37:39;;;;;;;10.68;7.78;;;;;;;4.06;87.08;101498.50;5028458;28;20021;-24
2022/01/17 03:40:06;;;;;;;11.10;7.97;;;;;;;4.07;87.14;101484.59;5023974;28;20386;-24
2022/01/17 03:42:31;;;;;;;11.57;8.30;;;;;;;4.07;86.90;101481.13;5022975;28;20035;-24
2022/01/17 03:44:57;;;;;;;15.93;8.43;;;;;;;4.07;86.64;101483.75;5020516;28;20021;-24
2022/01/17 03:47:22;;;;;;;12.93;8.07;;;;;;;4.07;87.27;101489.84;5021560;28;20029;-24
2022/01/17 03:49:48;;;;;;;10.05;6.90;;;;;;;4.08;87.04;101481.19;5024364;28;20109;-24
2022/01/17 03:52:13;;;;;;;11.30;8.02;;;;;;;4.08;86.91;101475.97;5024791;28;20417;-24
2022/01/17 03:54:39;;;;;;;10.40;7.50;;;;;;;4.09;86.69;101482.03;5022231;28;20025;-24
2022/01/17 03:57:05;;;;;;;9.52;7.00;;;;;;;4.09;86.54;101471.59;5026135;28;20026;-24
2022/01/17 03:59:30;;;;;;;12.98;8.02;;;;;;;4.11;86.62;101464.72;5018291;28;20206;-24
2022/01/17 04:01:56;;;;;;;12.07;7.50;;;;;;;4.11;86.94;101462.97;5026718;28;20385;-24
2022/01/17 04:04:22;;;;;;;9.77;7.00;;;;;;;4.08;86.67;101455.06;5019766;28;20108;-24
2022/01/17 04:06:47;;;;;;;8.23;6.65;;;;;;;4.10;86.63;101461.22;5024781;28;20112;-24
2022/01/17 04:09:13;;;;;;;7.50;5.65;;;;;;;4.12;86.07;101466.47;5025236;28;20124;-24
2022/01/17 04:11:39;;;;;;;9.77;6.30;;;;;;;4.13;86.43;101477.81;5019564;28;20032;-24
2022/01/17 04:14:09;;;;;;;8.02;6.57;;;;;;;4.09;86.47;101458.56;5026134;28;20037;-24
2022/01/17 04:16:35;;;;;;;9.60;6.05;;;;;;;4.14;86.43;101450.88;5018606;28;20040;-24
2022/01/17 04:19:00;;;;;;;11.05;5.63;;;;;;;4.11;86.35;101455.13;5024567;28;20029;-25
2022/01/17 04:21:31;;;;;;;6.03;4.63;;;;;;;4.12;86.24;101456.03;5024249;28;20408;-24
2022/01/17 04:23:57;;;;;;;6.35;5.13;;;;;;;4.11;86.31;101449.06;5025068;28;20028;-24
2022/01/17 04:26:22;;;;;;;9.25;4.47;;;;;;;4.12;85.78;101456.03;5024085;28;20030;-24
2022/01/17 04:28:48;;;;;;;5.80;4.13;;;;;;;4.11;85.77;101459.50;5026046;28;20029;-24
2022/01/17 04:31:14;;;;;;;3.95;3.30;;;;;;;4.13;86.23;101463.03;5020392;28;20030;-24
2022/01/17 04:33:39;;;;;;;6.07;3.70;;;;;;;4.14;85.51;101469.13;5025262;28;20040;-25
2022/01/17 04:36:07;;;;;;;3.72;3.30;;;;;;;4.14;85.68;101485.72;5023790;28;20083;-24
2022/01/17 04:38:33;;;;;;;3.40;3.08;;;;;;;4.12;85.58;101482.16;5018618;28;20566;-24
2022/01/17 04:41:05;;;;;;;3.25;2.60;;;;;;;4.15;86.17;101482.25;5022907;28;20029;-24
2022/01/17 04:46:07;;;;;;;;;;;;;;;4.14;85.30;101464.81;5021483;28;20367;-24
2022/01/17 04:48:33;;;;;;;3.22;2.70;;;;;;;4.15;85.62;101465.69;5024600;28;19917;-24
2022/01/17 04:50:59;;;;;;;7.20;3.38;;;;;;;4.16;85.59;101472.66;5021601;28;20040;-24
2022/01/17 04:53:29;;;;;;;4.20;2.75;;;;;;;4.17;85.00;101485.78;5022810;28;20037;-24
2022/01/17 04:55:55;;;;;;;3.50;1.90;;;;;;;4.16;84.53;101484.00;5025676;28;20071;-24
2022/01/17 04:58:21;;;;;;;5.35;2.17;;;;;;;4.18;84.63;101486.66;5024018;28;20034;-24
2022/01/17 05:00:47;;;;;;;3.38;1.80;;;;;;;4.18;84.38;101492.78;5024473;28;20025;-24
2022/01/17 05:03:18;;;;;;;3.13;1.80;;;;;;;4.19;83.89;101489.34;5021342;28;20065;-24
2022/01/17 05:05:44;;;;;;;3.38;1.95;;;;;;;4.20;83.50;101505.91;5024034;28;20026;-24
2022/01/17 05:08:10;;;;;;;6.90;2.30;;;;;;;4.20;83.70;101491.09;5022611;28;20083;-24
2022/01/17 05:10:35;;;;;;;4.75;2.33;;;;;;;4.21;83.92;101492.00;5020175;28;20545;-24
2022/01/17 05:13:02;;;;;;;3.90;1.65;;;;;;;4.22;84.35;101491.16;5019396;28;20437;-24
2022/01/17 05:15:35;;;;;;;4.30;2.08;;;;;;;4.22;84.38;101505.09;5017326;28;20061;-24
2022/01/17 05:20:35;;;;;;;2.78;2.05;;;;;;;4.23;85.22;101512.09;5023695;28;20159;-24
2022/01/17 05:23:01;;;;;;;2.90;2.38;;;;;;;4.22;84.34;101494.66;5020691;28;20025;-24
2022/01/17 05:25:26;;;;;;;5.13;2.10;;;;;;;4.23;85.25;101506.88;5019602;28;20037;-24
2022/01/17 05:27:52;;;;;;;4.65;1.60;;;;;;;4.19;83.84;101518.06;5024645;28;20091;-24
2022/01/17 05:30:19;;;;;;;6.55;2.83;;;;;;;4.22;83.22;101506.81;5021382;28;20036;-24
2022/01/17 05:32:46;;;;;;;3.88;1.70;;;;;;;4.21;82.09;101484.16;5019096;28;20053;-24
2022/01/17 05:35:12;;;;;;;8.65;1.85;;;;;;;4.23;82.49;101485.97;5019010;28;20037;-24
2022/01/17 05:37:38;;;;;;;4.03;1.80;;;;;;;4.24;81.81;101487.72;5022220;28;20120;-24
2022/01/17 05:40:05;;;;;;;7.00;2.03;;;;;;;4.24;81.22;101485.13;5022190;28;20561;-24
2022/01/17 05:42:31;;;;;;;2.88;1.67;;;;;;;4.27;81.60;101486.94;5020361;28;20063;-24
2022/01/17 05:44:56;;;;;;;5.97;2.25;;;;;;;4.26;81.27;101479.94;5035797;28;20033;-24
2022/01/17 05:47:22;;;;;;;4.80;2.00;;;;;;;4.30;80.17;101483.56;5022827;28;20029;-24
2022/01/17 05:49:48;;;;;;;7.75;2.03;;;;;;;4.29;80.49;101476.53;5019159;28;20053;-24
2022/01/17 05:52:14;;;;;;;4.82;1.80;;;;;;;4.31;81.49;101487.94;5007135;28;20026;-24
2022/01/17 05:54:41;;;;;;;2.65;1.67;;;;;;;4.32;82.55;101494.91;5020795;28;20086;-24
2022/01/17 05:57:06;;;;;;;5.68;1.88;;;;;;;4.32;81.19;101494.91;5005990;28;20045;-24
2022/01/17 05:59:32;;;;;;;3.70;1.50;;;;;;;4.32;81.04;101505.38;5022647;28;20136;-24
2022/01/17 06:01:57;;;;;;;3.35;1.88;;;;;;;4.35;81.69;101506.34;5021341;28;20101;-24
2022/01/17 06:04:23;;;;;;;4.80;2.15;;;;;;;4.32;80.83;101495.81;5020101;28;20029;-24
2022/01/17 06:06:49;;;;;;;3.63;1.48;;;;;;;4.34;81.31;101496.72;5021754;28;20431;-24
2022/01/17 06:09:15;;;;;;;5.20;1.88;;;;;;;4.35;80.67;101495.91;5023176;28;20033;-24
2022/01/17 06:11:40;;;;;;;3.03;1.67;;;;;;;4.38;81.34;101483.78;5021045;28;20081;-24
2022/01/17 06:14:07;;;;;;;3.25;1.70;;;;;;;4.38;82.26;101470.72;5017621;28;20489;-24
2022/01/17 06:16:33;;;;;;;6.65;2.20;;;;;;;4.38;80.76;101471.59;5021585;28;20037;-24
2022/01/17 06:18:59;;;;;;;4.90;1.70;;;;;;;4.38;81.35;101489.88;5026524;28;20431;-24
2022/01/17 06:21:25;;;;;;;4.97;1.70;;;;;;;4.36;81.05;101496.78;5024236;28;20013;-24
2022/01/17 06:23:52;;;;;;;7.07;1.85;;;;;;;4.39;81.01;101517.78;5024861;28;20028;-24
2022/01/17 06:26:19;;;;;;;10.52;1.58;;;;;;;4.36;80.09;101521.19;5020115;28;20970;-24
2022/01/17 06:28:44;;;;;;;6.70;1.80;;;;;;;4.38;80.52;101518.63;5028710;28;20025;-24
2022/01/17 06:31:10;;;;;;;5.35;1.85;;;;;;;4.40;80.65;101535.22;5023582;28;20068;-24
2022/01/17 06:33:35;;;;;;;5.45;1.48;;;;;;;4.41;80.86;101546.56;5023582;28;20436;-24
2022/01/17 06:36:01;;;;;;;8.55;2.95;;;;;;;4.41;81.45;101526.56;5027174;28;20213;-24
2022/01/17 06:38:26;;;;;;;5.38;1.30;;;;;;;4.39;80.91;101517.78;5018384;28;20477;-24
2022/01/17 06:40:52;;;;;;;6.90;1.98;;;;;;;4.41;81.31;101505.66;5019774;28;20032;-24
2022/01/17 06:43:17;;;;;;;6.68;1.85;;;;;;;4.40;80.48;101503.88;5018438;28;20021;-24
2022/01/17 06:45:45;;;;;;;7.85;2.38;;;;;;;4.39;80.74;101504.72;5022995;28;20439;-24
2022/01/17 06:48:11;;;;;;;4.80;1.92;;;;;;;4.39;80.58;101506.44;5019179;28;20113;-24
2022/01/17 06:50:37;;;;;;;5.85;1.88;;;;;;;4.38;81.09;101510.78;5019381;28;20109;-24
2022/01/17 06:53:03;;;;;;;3.58;1.75;;;;;;;4.40;80.54;101518.66;5016619;28;20117;-24
2022/01/17 06:55:29;;;;;;;6.28;1.70;;;;;;;4.40;80.65;101526.50;5019109;28;20453;-24
2022/01/17 06:57:54;;;;;;;8.80;1.60;;;;;;;4.41;80.94;101552.69;5025937;28;20063;-24
2022/01/17 07:00:20;;;;;;;4.32;1.88;;;;;;;4.40;80.40;101543.03;5028069;28;20021;-24
2022/01/17 07:02:46;;;;;;;3.17;1.75;;;;;;;4.41;80.72;101547.44;5024265;28;20033;-24
2022/01/17 07:05:11;;;;;;;2.97;1.50;;;;;;;4.40;80.21;101535.22;5023285;28;20402;-24
2022/01/17 07:07:37;;;;;;;2.63;1.52;;;;;;;4.40;81.08;101550.88;5022675;28;20108;-24
2022/01/17 07:10:04;;;;;;;5.32;2.42;;;;;;;4.39;79.92;101549.13;5026056;28;20044;-24
2022/01/17 07:12:29;;;;;;;4.05;1.77;;;;;;;4.41;81.13;101568.34;5026343;28;20029;-24
2022/01/17 07:14:55;;;;;;;3.75;1.70;;;;;;;4.42;80.74;101574.44;5023356;28;20066;-24
2022/01/17 07:17:20;;;;;;;6.95;1.67;;;;;;;4.40;81.26;101566.56;5025447;28;20389;-24
2022/01/17 07:19:46;;;;;;;2.55;1.05;;;;;;;4.43;80.52;101581.47;5026878;28;20553;-24
2022/01/17 07:22:12;;;;;;;3.75;1.15;;;;;;;4.43;80.40;101566.66;5026288;28;20116;-24
2022/01/17 07:24:38;;;;;;;3.58;0.90;;;;;;;4.43;80.43;101545.75;5023213;28;20091;-25
2022/01/17 07:27:04;;;;;;;5.15;1.17;;;;;;;4.43;80.34;101532.69;5020970;28;20033;-24
2022/01/17 07:29:30;;;;;;;3.25;1.75;;;;;;;4.44;81.04;101531.84;5021816;28;20025;-24
2022/01/17 07:31:56;;;;;;;2.50;1.00;;;;;;;4.45;80.59;101523.19;5022412;28;20041;-24
2022/01/17 07:34:22;;;;;;;3.10;0.98;;;;;;;4.45;80.46;101510.13;5025085;28;20029;-24
2022/01/17 07:36:48;;;;;;;2.78;1.08;;;;;;;4.46;80.31;101484.88;5024338;28;20037;-24
2022/01/17 07:39:14;;;;;;;0.90;0.63;;;;;;;4.48;80.78;101491.94;5023858;28;20039;-24
2022/01/17 07:41:39;;;;;;;4.18;1.23;;;;;;;4.49;80.85;101509.38;5025443;28;20395;-24
2022/01/17 07:44:07;;;;;;;3.58;1.27;;;;;;;4.48;81.21;101496.28;5025170;28;20052;-24
2022/01/17 07:46:36;;;;;;;2.22;1.10;;;;;;;4.50;81.35;101510.25;5019044;28;20033;-24
2022/01/17 07:51:37;;;;;;;1.55;1.10;;;;;;;4.51;81.75;101506.81;5022761;28;20099;-24
2022/01/17 07:54:04;;;;;;;6.15;1.20;;;;;;;4.51;81.15;101491.13;5020048;28;20433;-24
2022/01/17 07:56:31;;;;;;;4.50;1.15;;;;;;;4.52;80.69;101494.63;5023226;28;20033;-24
2022/01/17 07:58:57;;;;;;;3.53;1.77;;;;;;;4.54;80.96;101506.00;5023224;28;20092;-24
2022/01/17 08:01:23;;;;;;;6.80;1.10;;;;;;;4.55;81.80;101494.72;5022302;28;20033;-24
2022/01/17 08:03:48;;;;;;;1.88;1.00;;;;;;;4.55;82.06;101495.63;5018497;28;20025;-24
2022/01/17 08:06:14;;;;;;;4.65;1.33;;;;;;;4.55;81.47;101505.16;5020478;28;20702;-24
2022/01/17 08:08:40;;;;;;;2.22;1.20;;;;;;;4.55;80.12;101497.31;5020069;28;20040;-24
2022/01/17 08:11:05;;;;;;;2.63;1.20;;;;;;;4.57;81.22;101485.22;5018952;28;20040;-24
2022/01/17 08:13:31;;;;;;;2.90;1.30;;;;;;;4.58;81.26;101474.81;5019451;28;20112;-24
2022/01/17 08:15:57;;;;;;;3.90;1.30;;;;;;;4.59;81.51;101487.00;5022442;28;20875;-24
2022/01/17 08:18:22;;;;;;;2.50;1.13;;;;;;;4.60;80.85;101482.66;5019532;28;20040;-24
2022/01/17 08:20:48;;;;;;;1.45;0.77;;;;;;;4.61;80.98;101481.84;5021543;28;20024;-24
2022/01/17 08:23:13;;;;;;;2.80;1.00;;;;;;;4.62;80.76;101491.44;5022620;28;20029;-24
2022/01/17 08:25:39;;;;;;;2.63;1.10;;;;;;;4.62;80.91;101487.09;5021528;28;20489;-24
2022/01/17 08:28:05;;;;;;;3.80;0.90;;;;;;;4.62;80.48;101473.16;5020249;28;20201;-24
2022/01/17 08:30:32;;;;;;;2.55;1.05;;;;;;;4.64;81.09;101471.47;5020080;28;20137;-24
2022/01/17 08:32:59;;;;;;;1.15;1.02;;;;;;;4.65;81.08;101457.56;5021309;28;20437;-24
2022/01/17 08:35:25;;;;;;;1.77;1.00;;;;;;;4.64;80.71;101447.97;5021997;28;20021;-24
2022/01/17 08:37:51;;;;;;;2.88;1.00;;;;;;;4.67;81.01;101428.88;5020940;28;20045;-24
2022/01/17 08:40:18;;;;;;;2.03;0.82;;;;;;;4.67;80.84;101440.19;5021391;28;20026;-24
2022/01/17 08:42:44;;;;;;;1.45;0.73;;;;;;;4.68;81.29;101447.19;5023020;28;20489;-24
2022/01/17 08:45:13;;;;;;;2.13;1.00;;;;;;;4.68;80.87;101472.44;5023135;28;20025;-24
2022/01/17 08:47:38;;;;;;;1.70;1.00;;;;;;;4.68;80.95;101488.13;5023277;28;20105;-24
2022/01/17 08:50:06;;;;;;;3.72;1.00;;;;;;;4.68;81.58;101498.56;5021774;28;20033;-24
2022/01/17 08:52:31;;;;;;;1.35;0.85;;;;;;;4.66;80.42;101505.47;5022577;28;20039;-24
2022/01/17 08:54:58;;;;;;;1.80;0.85;;;;;;;4.68;80.74;101504.69;5020311;28;20034;-24
2022/01/17 08:57:25;;;;;;;3.75;1.00;;;;;;;4.68;80.64;101507.31;5020161;28;20433;-24
2022/01/17 08:59:51;;;;;;;5.22;1.30;;;;;;;4.70;80.82;101515.19;5021472;28;20060;-24
2022/01/17 09:02:17;;;;;;;1.75;1.40;;;;;;;4.68;80.39;101530.81;5020066;28;20060;-24
2022/01/17 09:04:42;;;;;;;8.35;1.92;;;;;;;4.70;81.30;101517.81;5020103;28;20365;-25
2022/01/17 09:07:10;;;;;;;4.50;1.10;;;;;;;4.71;81.20;101515.22;5019701;28;20033;-24
2022/01/17 09:09:37;;;;;;;4.97;1.40;;;;;;;4.71;80.88;101504.75;5018760;28;20429;-24
2022/01/17 09:12:08;;;;;;;5.18;1.30;;;;;;;4.70;80.74;101492.53;5020815;28;20030;-24
2022/01/17 09:14:34;;;;;;;3.25;1.20;;;;;;;4.70;80.85;101489.06;5020468;28;20029;-24
2022/01/17 09:17:00;;;;;;;2.97;1.65;;;;;;;4.73;82.07;101473.44;5020574;28;20025;-24
2022/01/17 09:19:27;;;;;;;3.45;1.50;;;;;;;4.71;81.54;101472.53;5020092;28;20030;-24
2022/01/17 09:21:53;;;;;;;2.63;1.10;;;;;;;4.70;81.89;101479.47;5019763;28;20037;-24
2022/01/17 09:24:19;;;;;;;2.25;1.17;;;;;;;4.71;81.68;101489.06;5020801;28;20025;-24
2022/01/17 09:26:45;;;;;;;2.22;0.95;;;;;;;4.67;81.29;101494.19;5021936;28;20025;-24
2022/01/17 09:29:11;;;;;;;3.67;1.20;;;;;;;4.71;81.79;101494.28;5016071;28;20490;-24
2022/01/17 09:31:37;;;;;;;4.93;1.63;;;;;;;4.74;82.07;101496.13;5018448;28;20040;-24
2022/01/17 09:34:02;;;;;;;3.30;1.40;;;;;;;4.74;81.96;101489.16;5018688;28;20021;-24
2022/01/17 09:36:31;;;;;;;4.45;1.10;;;;;;;4.74;82.10;101502.22;5018635;28;20490;-24
2022/01/17 09:38:57;;;;;;;8.23;1.50;;;;;;;4.75;82.22;101505.75;5018434;28;20083;-24
2022/01/17 09:41:23;;;;;;;3.50;1.58;;;;;;;4.76;81.95;101491.81;5024258;28;20057;-24
2022/01/17 09:43:50;;;;;;;2.47;1.63;;;;;;;4.79;82.58;101517.16;5021233;28;20021;-24
2022/01/17 09:46:19;;;;;;;1.58;1.05;;;;;;;4.78;82.71;101512.78;5023651;28;20114;-24
2022/01/17 09:48:48;;;;;;;1.77;0.90;;;;;;;4.76;82.71;101517.97;5021044;28;20512;-24
2022/01/17 09:51:30;;;;;;;2.85;1.55;;;;;;;4.78;83.05;101515.41;5019288;28;20037;-24
2022/01/17 09:53:58;;;;;;;4.45;1.20;;;;;;;4.79;83.06;101523.28;5024019;28;20438;-24
2022/01/17 09:56:25;;;;;;;8.70;2.92;;;;;;;4.79;82.94;101517.16;5023294;28;20034;-24
2022/01/17 09:58:51;;;;;;;3.50;1.63;;;;;;;4.80;82.60;101513.72;5027023;28;20037;-24
2022/01/17 10:01:17;;;;;;;4.43;1.60;;;;;;;4.82;83.48;101527.72;5023498;28;20079;-24
2022/01/17 10:03:46;;;;;;;4.07;1.60;;;;;;;4.80;82.84;101513.72;5025670;28;20032;-24
2022/01/17 10:06:12;;;;;;;3.42;1.65;;;;;;;4.80;83.39;101503.28;5024066;28;20022;-24
2022/01/17 10:08:38;;;;;;;3.47;1.65;;;;;;;4.81;83.77;101505.94;5023267;28;21002;-24
2022/01/17 10:11:13;;;;;;;3.03;1.35;;;;;;;4.80;83.67;101504.13;5026181;28;20025;-24
2022/01/17 10:13:44;;;;;;;4.30;1.85;;;;;;;4.80;83.18;101517.19;5026745;28;20029;-24
2022/01/17 10:16:20;;;;;;;3.92;1.95;;;;;;;4.82;83.18;101514.63;5021239;28;20033;-24
2022/01/17 10:18:53;;;;;;;2.47;1.58;;;;;;;4.83;83.56;101514.69;5020969;28;20481;-24
2022/01/17 10:21:48;;;;;;;4.72;2.28;;;;;;;4.81;84.06;101520.72;5026337;28;20453;-24
2022/01/17 10:27:47;;;;;;;2.85;2.00;;;;;;;4.85;84.44;101504.28;5024395;28;20088;-24
2022/01/17 10:31:06;;;;;;;5.13;1.73;;;;;;;4.84;84.09;101497.28;5025786;28;20038;-24
2022/01/17 10:35:38;;;;;;;5.95;1.80;;;;;;;4.85;84.21;101499.03;5026167;28;20087;-25
2022/01/17 10:38:04;;;;;;;5.68;2.33;;;;;;;4.86;84.05;101500.81;5024979;28;20060;-24
2022/01/17 10:40:33;;;;;;;2.60;1.90;;;;;;;4.87;84.04;101494.75;5027209;28;20056;-24
2022/01/17 10:43:01;;;;;;;2.50;1.63;;;;;;;4.88;84.67;101501.75;5022441;28;20415;-24
2022/01/17 10:45:33;;;;;;;2.90;1.60;;;;;;;4.86;84.36;101504.31;5026116;28;20591;-24
2022/01/17 10:48:00;;;;;;;3.17;1.42;;;;;;;4.88;84.34;101523.53;5027454;28;20064;-24
2022/01/17 10:50:32;;;;;;;2.80;1.95;;;;;;;4.90;83.99;101526.19;5025323;28;20032;-24
2022/01/17 10:53:04;;;;;;;4.65;2.92;;;;;;;4.88;84.97;101527.88;5024406;28;20452;-24
2022/01/17 10:55:35;;;;;;;2.92;1.88;;;;;;;4.90;84.28;101520.97;5025682;28;20531;-24
2022/01/17 10:58:04;;;;;;;4.78;1.48;;;;;;;4.90;83.96;101514.88;5024588;28;20115;-24
2022/01/17 11:00:36;;;;;;;3.13;1.73;;;;;;;4.90;84.46;101523.56;5024643;28;20075;-24
2022/01/17 11:03:08;;;;;;;6.03;1.92;;;;;;;4.90;84.58;101526.19;5024856;28;20033;-24
2022/01/17 11:05:36;;;;;;;3.28;1.70;;;;;;;4.92;84.59;101529.75;5024285;28;20064;-24
2022/01/17 11:08:03;;;;;;;4.32;1.73;;;;;;;4.94;84.49;101532.41;5025882;28;20025;-24
2022/01/17 11:10:32;;;;;;;3.42;1.77;;;;;;;4.93;84.63;101531.50;5023080;28;20036;-24
2022/01/17 11:13:00;;;;;;;4.47;1.85;;;;;;;4.94;84.28;101540.25;5024232;28;20025;-24
2022/01/17 11:15:26;;;;;;;2.65;1.63;;;;;;;4.95;84.63;101527.22;5025399;28;20536;-24
2022/01/17 11:17:56;;;;;;;5.07;2.22;;;;;;;4.97;84.47;101522.03;5023661;28;20590;-24
2022/01/17 11:20:24;;;;;;;3.10;1.77;;;;;;;4.96;84.85;101539.44;5024154;28;20025;-24
2022/01/17 11:22:53;;;;;;;2.88;1.98;;;;;;;4.97;84.22;101535.97;5017796;28;20041;-24
2022/01/17 11:25:31;;;;;;;3.50;2.15;;;;;;;4.97;84.82;101538.59;5024601;28;20448;-24
2022/01/17 11:27:57;;;;;;;2.83;1.80;;;;;;;4.98;84.68;101550.84;5021401;28;20378;-24
2022/01/17 11:30:23;;;;;;;4.15;2.88;;;;;;;4.97;84.89;101551.66;5020396;28;20035;-24
2022/01/17 11:32:50;;;;;;;5.10;2.20;;;;;;;4.98;84.98;101532.53;5019373;28;20029;-24
2022/01/17 11:35:18;;;;;;;3.85;2.25;;;;;;;5.00;85.01;101538.69;5023075;28;20758;-24
2022/01/17 11:37:48;;;;;;;2.47;1.63;;;;;;;5.01;84.92;101548.28;5018784;28;20036;-24
2022/01/17 11:40:15;;;;;;;6.28;2.30;;;;;;;5.03;85.15;101532.66;5017911;28;20036;-24
2022/01/17 11:42:49;;;;;;;2.10;1.85;;;;;;;5.05;85.05;101522.22;5021467;28;20042;-24
2022/01/17 11:45:21;;;;;;;4.40;2.30;;;;;;;5.06;84.74;101531.84;5021072;28;20044;-24
2022/01/17 11:47:51;;;;;;;4.40;1.70;;;;;;;5.08;84.97;101535.41;5018508;28;20047;-24
2022/01/17 11:50:32;;;;;;;4.55;1.90;;;;;;;5.09;85.50;101526.69;5019942;28;20021;-24
2022/01/17 11:53:02;;;;;;;1.92;1.55;;;;;;;5.10;84.87;101512.81;5020729;28;20032;-24
2022/01/17 11:58:26;;;;;;;3.10;1.90;;;;;;;5.13;85.23;101518.09;5022049;28;20030;-24